sensor_id;sensor_type;location;lat;lon;timestamp;P1;durP1;ratioP1;P2;durP2;ratioP2
76210;SDS011;65003;49.518;11.280;2023-07-08T00:01:18;4.33;;;3.50;;
76210;SDS011;65003;49.518;11.280;2023-07-08T00:03:43;5.47;;;3.87;;
76210;SDS011;65003;49.518;11.280;2023-07-08T00:06:14;5.07;;;3.90;;
76210;SDS011;65003;49.518;11.280;2023-07-08T00:08:38;7.90;;;4.10;;
76210;SDS011;65003;49.518;11.280;2023-07-08T00:11:08;5.13;;;3.80;;
76210;SDS011;65003;49.518;11.280;2023-07-08T00:13:34;5.57;;;3.70;;
76210;SDS011;65003;49.518;11.280;2023-07-08T00:16:00;4.93;;;3.80;;
76210;SDS011;65003;49.518;11.280;2023-07-08T00:18:27;4.43;;;3.83;;
76210;SDS011;65003;49.518;11.280;2023-07-08T00:20:53;4.50;;;3.60;;
76210;SDS011;65003;49.518;11.280;2023-07-08T00:23:20;3.97;;;3.50;;
76210;SDS011;65003;49.518;11.280;2023-07-08T00:25:47;3.80;;;3.13;;
76210;SDS011;65003;49.518;11.280;2023-07-08T00:28:16;4.63;;;3.67;;
76210;SDS011;65003;49.518;11.280;2023-07-08T00:30:41;3.83;;;3.40;;
76210;SDS011;65003;49.518;11.280;2023-07-08T00:33:08;5.30;;;3.57;;
76210;SDS011;65003;49.518;11.280;2023-07-08T00:35:35;5.63;;;3.70;;
76210;SDS011;65003;49.518;11.280;2023-07-08T00:38:02;3.67;;;3.10;;
76210;SDS011;65003;49.518;11.280;2023-07-08T00:40:34;6.07;;;3.93;;
76210;SDS011;65003;49.518;11.280;2023-07-08T00:43:01;3.67;;;3.10;;
76210;SDS011;65003;49.518;11.280;2023-07-08T00:45:44;7.17;;;3.70;;
76210;SDS011;65003;49.518;11.280;2023-07-08T00:48:00;5.77;;;3.80;;
76210;SDS011;65003;49.518;11.280;2023-07-08T00:50:25;6.00;;;4.00;;
76210;SDS011;65003;49.518;11.280;2023-07-08T00:53:16;4.03;;;3.43;;
76210;SDS011;65003;49.518;11.280;2023-07-08T00:55:18;5.20;;;3.47;;
76210;SDS011;65003;49.518;11.280;2023-07-08T00:57:45;4.93;;;3.57;;
76210;SDS011;65003;49.518;11.280;2023-07-08T01:00:14;5.70;;;3.43;;
76210;SDS011;65003;49.518;11.280;2023-07-08T01:02:45;7.47;;;3.37;;
76210;SDS011;65003;49.518;11.280;2023-07-08T01:05:10;5.03;;;3.73;;
76210;SDS011;65003;49.518;11.280;2023-07-08T01:07:36;5.13;;;3.70;;
76210;SDS011;65003;49.518;11.280;2023-07-08T01:10:05;4.57;;;3.70;;
76210;SDS011;65003;49.518;11.280;2023-07-08T01:12:32;4.80;;;3.90;;
76210;SDS011;65003;49.518;11.280;2023-07-08T01:14:57;4.53;;;3.50;;
76210;SDS011;65003;49.518;11.280;2023-07-08T01:17:24;5.73;;;4.17;;
76210;SDS011;65003;49.518;11.280;2023-07-08T01:19:50;6.37;;;3.93;;
76210;SDS011;65003;49.518;11.280;2023-07-08T01:22:17;4.87;;;4.17;;
76210;SDS011;65003;49.518;11.280;2023-07-08T01:24:44;5.70;;;3.93;;
76210;SDS011;65003;49.518;11.280;2023-07-08T01:27:12;5.63;;;4.23;;
76210;SDS011;65003;49.518;11.280;2023-07-08T01:29:37;6.33;;;3.60;;
76210;SDS011;65003;49.518;11.280;2023-07-08T01:32:03;7.47;;;4.67;;
76210;SDS011;65003;49.518;11.280;2023-07-08T01:34:31;4.67;;;3.90;;
76210;SDS011;65003;49.518;11.280;2023-07-08T01:36:58;6.03;;;4.23;;
76210;SDS011;65003;49.518;11.280;2023-07-08T01:39:25;5.63;;;3.87;;
76210;SDS011;65003;49.518;11.280;2023-07-08T01:41:51;5.40;;;3.80;;
76210;SDS011;65003;49.518;11.280;2023-07-08T01:44:19;5.17;;;4.03;;
76210;SDS011;65003;49.518;11.280;2023-07-08T01:46:50;6.03;;;3.67;;
76210;SDS011;65003;49.518;11.280;2023-07-08T01:49:17;5.20;;;3.90;;
76210;SDS011;65003;49.518;11.280;2023-07-08T01:51:44;5.17;;;3.47;;
76210;SDS011;65003;49.518;11.280;2023-07-08T01:54:10;4.77;;;4.03;;
76210;SDS011;65003;49.518;11.280;2023-07-08T01:56:37;4.43;;;3.63;;
76210;SDS011;65003;49.518;11.280;2023-07-08T01:59:03;5.40;;;3.70;;
76210;SDS011;65003;49.518;11.280;2023-07-08T02:01:30;4.77;;;3.80;;
76210;SDS011;65003;49.518;11.280;2023-07-08T02:03:57;5.07;;;3.77;;
76210;SDS011;65003;49.518;11.280;2023-07-08T02:06:23;4.90;;;3.90;;
76210;SDS011;65003;49.518;11.280;2023-07-08T02:08:50;6.77;;;4.00;;
76210;SDS011;65003;49.518;11.280;2023-07-08T02:11:16;4.43;;;3.47;;
76210;SDS011;65003;49.518;11.280;2023-07-08T02:13:43;5.47;;;3.77;;
76210;SDS011;65003;49.518;11.280;2023-07-08T02:16:10;5.67;;;4.20;;
76210;SDS011;65003;49.518;11.280;2023-07-08T02:18:36;5.87;;;3.87;;
76210;SDS011;65003;49.518;11.280;2023-07-08T02:21:03;4.43;;;3.67;;
76210;SDS011;65003;49.518;11.280;2023-07-08T02:23:29;4.40;;;3.60;;
76210;SDS011;65003;49.518;11.280;2023-07-08T02:25:56;6.30;;;3.90;;
76210;SDS011;65003;49.518;11.280;2023-07-08T02:28:23;5.13;;;3.83;;
76210;SDS011;65003;49.518;11.280;2023-07-08T02:30:49;4.67;;;3.70;;
76210;SDS011;65003;49.518;11.280;2023-07-08T02:33:16;6.57;;;4.20;;
76210;SDS011;65003;49.518;11.280;2023-07-08T02:35:43;4.23;;;3.83;;
76210;SDS011;65003;49.518;11.280;2023-07-08T02:38:10;4.83;;;3.63;;
76210;SDS011;65003;49.518;11.280;2023-07-08T02:40:37;6.23;;;3.50;;
76210;SDS011;65003;49.518;11.280;2023-07-08T02:43:04;6.90;;;4.00;;
76210;SDS011;65003;49.518;11.280;2023-07-08T02:45:31;4.60;;;3.70;;
76210;SDS011;65003;49.518;11.280;2023-07-08T02:47:57;5.73;;;3.70;;
76210;SDS011;65003;49.518;11.280;2023-07-08T02:50:24;6.93;;;4.40;;
76210;SDS011;65003;49.518;11.280;2023-07-08T02:52:50;4.80;;;3.30;;
76210;SDS011;65003;49.518;11.280;2023-07-08T02:55:17;5.27;;;3.53;;
76210;SDS011;65003;49.518;11.280;2023-07-08T02:57:44;4.33;;;3.63;;
76210;SDS011;65003;49.518;11.280;2023-07-08T03:00:11;5.50;;;3.77;;
76210;SDS011;65003;49.518;11.280;2023-07-08T03:02:38;4.83;;;3.67;;
76210;SDS011;65003;49.518;11.280;2023-07-08T03:05:05;4.40;;;3.73;;
76210;SDS011;65003;49.518;11.280;2023-07-08T03:07:31;5.97;;;3.87;;
76210;SDS011;65003;49.518;11.280;2023-07-08T03:09:58;5.23;;;3.93;;
76210;SDS011;65003;49.518;11.280;2023-07-08T03:12:25;6.20;;;4.00;;
76210;SDS011;65003;49.518;11.280;2023-07-08T03:14:51;6.23;;;4.13;;
76210;SDS011;65003;49.518;11.280;2023-07-08T03:17:18;5.67;;;4.10;;
76210;SDS011;65003;49.518;11.280;2023-07-08T03:19:45;7.30;;;3.93;;
76210;SDS011;65003;49.518;11.280;2023-07-08T03:22:11;6.53;;;3.93;;
76210;SDS011;65003;49.518;11.280;2023-07-08T03:24:38;6.57;;;4.03;;
76210;SDS011;65003;49.518;11.280;2023-07-08T03:27:04;6.53;;;3.60;;
76210;SDS011;65003;49.518;11.280;2023-07-08T03:29:31;6.07;;;4.30;;
76210;SDS011;65003;49.518;11.280;2023-07-08T03:31:57;5.80;;;4.20;;
76210;SDS011;65003;49.518;11.280;2023-07-08T03:34:24;4.43;;;3.67;;
76210;SDS011;65003;49.518;11.280;2023-07-08T03:36:51;6.73;;;4.37;;
76210;SDS011;65003;49.518;11.280;2023-07-08T03:39:18;6.40;;;4.00;;
76210;SDS011;65003;49.518;11.280;2023-07-08T03:41:44;4.90;;;3.93;;
76210;SDS011;65003;49.518;11.280;2023-07-08T03:44:11;5.33;;;3.67;;
76210;SDS011;65003;49.518;11.280;2023-07-08T03:46:37;4.50;;;3.77;;
76210;SDS011;65003;49.518;11.280;2023-07-08T03:49:04;6.03;;;4.20;;
76210;SDS011;65003;49.518;11.280;2023-07-08T03:51:32;10.10;;;4.23;;
76210;SDS011;65003;49.518;11.280;2023-07-08T03:53:57;4.77;;;3.87;;
76210;SDS011;65003;49.518;11.280;2023-07-08T03:56:24;5.47;;;3.93;;
76210;SDS011;65003;49.518;11.280;2023-07-08T03:58:50;5.50;;;4.10;;
76210;SDS011;65003;49.518;11.280;2023-07-08T04:01:18;6.40;;;3.67;;
76210;SDS011;65003;49.518;11.280;2023-07-08T04:03:44;5.07;;;4.03;;
76210;SDS011;65003;49.518;11.280;2023-07-08T04:06:10;5.20;;;3.57;;
76210;SDS011;65003;49.518;11.280;2023-07-08T04:08:37;5.93;;;4.30;;
76210;SDS011;65003;49.518;11.280;2023-07-08T04:11:04;6.50;;;4.10;;
76210;SDS011;65003;49.518;11.280;2023-07-08T04:13:31;6.17;;;3.90;;
76210;SDS011;65003;49.518;11.280;2023-07-08T04:15:58;5.17;;;4.00;;
76210;SDS011;65003;49.518;11.280;2023-07-08T04:18:26;6.93;;;4.50;;
76210;SDS011;65003;49.518;11.280;2023-07-08T04:20:53;6.43;;;4.93;;
76210;SDS011;65003;49.518;11.280;2023-07-08T04:23:20;6.90;;;4.20;;
76210;SDS011;65003;49.518;11.280;2023-07-08T04:25:46;7.20;;;4.20;;
76210;SDS011;65003;49.518;11.280;2023-07-08T04:28:13;5.70;;;4.30;;
76210;SDS011;65003;49.518;11.280;2023-07-08T04:30:39;7.37;;;4.87;;
76210;SDS011;65003;49.518;11.280;2023-07-08T04:33:08;6.57;;;3.83;;
76210;SDS011;65003;49.518;11.280;2023-07-08T04:35:34;5.13;;;3.70;;
76210;SDS011;65003;49.518;11.280;2023-07-08T04:38:00;4.93;;;4.13;;
76210;SDS011;65003;49.518;11.280;2023-07-08T04:40:26;6.97;;;4.33;;
76210;SDS011;65003;49.518;11.280;2023-07-08T04:42:53;5.70;;;4.37;;
76210;SDS011;65003;49.518;11.280;2023-07-08T04:45:20;6.87;;;4.13;;
76210;SDS011;65003;49.518;11.280;2023-07-08T04:47:47;5.47;;;4.50;;
76210;SDS011;65003;49.518;11.280;2023-07-08T04:50:14;7.90;;;4.30;;
76210;SDS011;65003;49.518;11.280;2023-07-08T04:52:40;5.30;;;3.87;;
76210;SDS011;65003;49.518;11.280;2023-07-08T04:55:07;5.50;;;4.17;;
76210;SDS011;65003;49.518;11.280;2023-07-08T04:57:34;6.63;;;4.03;;
76210;SDS011;65003;49.518;11.280;2023-07-08T05:00:01;7.77;;;4.77;;
76210;SDS011;65003;49.518;11.280;2023-07-08T05:02:27;6.10;;;4.23;;
76210;SDS011;65003;49.518;11.280;2023-07-08T05:04:54;5.60;;;4.10;;
76210;SDS011;65003;49.518;11.280;2023-07-08T05:07:20;6.13;;;4.90;;
76210;SDS011;65003;49.518;11.280;2023-07-08T05:09:47;6.20;;;4.47;;
76210;SDS011;65003;49.518;11.280;2023-07-08T05:12:14;7.33;;;4.43;;
76210;SDS011;65003;49.518;11.280;2023-07-08T05:14:40;6.60;;;4.30;;
76210;SDS011;65003;49.518;11.280;2023-07-08T05:17:07;7.97;;;4.67;;
76210;SDS011;65003;49.518;11.280;2023-07-08T05:19:34;6.47;;;4.57;;
76210;SDS011;65003;49.518;11.280;2023-07-08T05:22:00;5.70;;;3.90;;
76210;SDS011;65003;49.518;11.280;2023-07-08T05:24:27;6.23;;;3.70;;
76210;SDS011;65003;49.518;11.280;2023-07-08T05:26:53;5.43;;;4.13;;
76210;SDS011;65003;49.518;11.280;2023-07-08T05:29:20;7.57;;;5.40;;
76210;SDS011;65003;49.518;11.280;2023-07-08T05:31:47;4.67;;;3.80;;
76210;SDS011;65003;49.518;11.280;2023-07-08T05:34:13;4.73;;;4.00;;
76210;SDS011;65003;49.518;11.280;2023-07-08T05:36:40;5.83;;;5.07;;
76210;SDS011;65003;49.518;11.280;2023-07-08T05:39:06;5.03;;;4.23;;
76210;SDS011;65003;49.518;11.280;2023-07-08T05:41:33;6.00;;;4.37;;
76210;SDS011;65003;49.518;11.280;2023-07-08T05:44:00;6.90;;;4.83;;
76210;SDS011;65003;49.518;11.280;2023-07-08T05:46:26;7.43;;;4.57;;
76210;SDS011;65003;49.518;11.280;2023-07-08T05:48:53;7.20;;;4.77;;
76210;SDS011;65003;49.518;11.280;2023-07-08T05:51:20;6.37;;;4.90;;
76210;SDS011;65003;49.518;11.280;2023-07-08T05:53:46;14.97;;;4.40;;
76210;SDS011;65003;49.518;11.280;2023-07-08T05:56:13;6.80;;;4.87;;
76210;SDS011;65003;49.518;11.280;2023-07-08T05:58:39;5.50;;;4.30;;
76210;SDS011;65003;49.518;11.280;2023-07-08T06:01:06;6.87;;;4.63;;
76210;SDS011;65003;49.518;11.280;2023-07-08T06:03:33;5.47;;;4.60;;
76210;SDS011;65003;49.518;11.280;2023-07-08T06:05:59;5.87;;;4.47;;
76210;SDS011;65003;49.518;11.280;2023-07-08T06:08:26;6.20;;;4.60;;
76210;SDS011;65003;49.518;11.280;2023-07-08T06:10:52;5.63;;;3.80;;
76210;SDS011;65003;49.518;11.280;2023-07-08T06:13:19;5.37;;;4.03;;
76210;SDS011;65003;49.518;11.280;2023-07-08T06:15:46;5.93;;;4.53;;
76210;SDS011;65003;49.518;11.280;2023-07-08T06:18:12;5.40;;;4.80;;
76210;SDS011;65003;49.518;11.280;2023-07-08T06:20:39;5.20;;;4.67;;
76210;SDS011;65003;49.518;11.280;2023-07-08T06:23:05;6.90;;;4.23;;
76210;SDS011;65003;49.518;11.280;2023-07-08T06:25:32;11.00;;;4.93;;
76210;SDS011;65003;49.518;11.280;2023-07-08T06:27:59;5.67;;;4.40;;
76210;SDS011;65003;49.518;11.280;2023-07-08T06:30:25;5.17;;;3.90;;
76210;SDS011;65003;49.518;11.280;2023-07-08T06:32:52;5.93;;;4.83;;
76210;SDS011;65003;49.518;11.280;2023-07-08T06:35:18;5.47;;;4.60;;
76210;SDS011;65003;49.518;11.280;2023-07-08T06:37:45;4.40;;;4.00;;
76210;SDS011;65003;49.518;11.280;2023-07-08T06:40:12;5.63;;;4.33;;
76210;SDS011;65003;49.518;11.280;2023-07-08T06:42:38;4.97;;;4.20;;
76210;SDS011;65003;49.518;11.280;2023-07-08T06:45:05;6.17;;;4.83;;
76210;SDS011;65003;49.518;11.280;2023-07-08T06:47:32;7.13;;;4.70;;
76210;SDS011;65003;49.518;11.280;2023-07-08T06:49:58;5.03;;;4.50;;
76210;SDS011;65003;49.518;11.280;2023-07-08T06:52:25;5.07;;;4.00;;
76210;SDS011;65003;49.518;11.280;2023-07-08T06:54:52;5.77;;;4.30;;
76210;SDS011;65003;49.518;11.280;2023-07-08T06:57:18;5.50;;;4.20;;
76210;SDS011;65003;49.518;11.280;2023-07-08T06:59:45;5.17;;;3.77;;
76210;SDS011;65003;49.518;11.280;2023-07-08T07:02:12;6.77;;;4.37;;
76210;SDS011;65003;49.518;11.280;2023-07-08T07:04:38;5.37;;;4.53;;
76210;SDS011;65003;49.518;11.280;2023-07-08T07:07:05;5.80;;;4.37;;
76210;SDS011;65003;49.518;11.280;2023-07-08T07:09:31;4.73;;;4.17;;
76210;SDS011;65003;49.518;11.280;2023-07-08T07:11:58;4.73;;;4.07;;
76210;SDS011;65003;49.518;11.280;2023-07-08T07:14:25;6.37;;;4.10;;
76210;SDS011;65003;49.518;11.280;2023-07-08T07:16:52;6.03;;;4.10;;
76210;SDS011;65003;49.518;11.280;2023-07-08T07:19:19;4.87;;;4.37;;
76210;SDS011;65003;49.518;11.280;2023-07-08T07:21:45;7.17;;;4.70;;
76210;SDS011;65003;49.518;11.280;2023-07-08T07:24:12;5.10;;;4.27;;
76210;SDS011;65003;49.518;11.280;2023-07-08T07:26:38;7.37;;;4.43;;
76210;SDS011;65003;49.518;11.280;2023-07-08T07:29:05;5.53;;;4.13;;
76210;SDS011;65003;49.518;11.280;2023-07-08T07:31:32;4.80;;;4.30;;
76210;SDS011;65003;49.518;11.280;2023-07-08T07:33:59;5.23;;;4.73;;
76210;SDS011;65003;49.518;11.280;2023-07-08T07:36:25;4.87;;;4.37;;
76210;SDS011;65003;49.518;11.280;2023-07-08T07:38:52;7.10;;;4.23;;
76210;SDS011;65003;49.518;11.280;2023-07-08T07:41:18;4.73;;;4.33;;
76210;SDS011;65003;49.518;11.280;2023-07-08T07:43:45;6.07;;;4.60;;
76210;SDS011;65003;49.518;11.280;2023-07-08T07:46:11;5.57;;;4.60;;
76210;SDS011;65003;49.518;11.280;2023-07-08T07:48:38;5.00;;;4.10;;
76210;SDS011;65003;49.518;11.280;2023-07-08T07:51:04;5.25;;;4.70;;
76210;SDS011;65003;49.518;11.280;2023-07-08T07:53:31;5.33;;;4.83;;
76210;SDS011;65003;49.518;11.280;2023-07-08T07:55:58;5.92;;;4.58;;
76210;SDS011;65003;49.518;11.280;2023-07-08T07:58:24;5.10;;;4.60;;
76210;SDS011;65003;49.518;11.280;2023-07-08T08:00:51;6.13;;;4.90;;
76210;SDS011;65003;49.518;11.280;2023-07-08T08:03:18;5.28;;;4.78;;
76210;SDS011;65003;49.518;11.280;2023-07-08T08:05:44;5.85;;;4.87;;
76210;SDS011;65003;49.518;11.280;2023-07-08T08:08:11;4.70;;;4.22;;
76210;SDS011;65003;49.518;11.280;2023-07-08T08:10:37;4.50;;;4.10;;
76210;SDS011;65003;49.518;11.280;2023-07-08T08:13:04;5.15;;;4.70;;
76210;SDS011;65003;49.518;11.280;2023-07-08T08:15:30;4.92;;;4.35;;
76210;SDS011;65003;49.518;11.280;2023-07-08T08:17:57;7.05;;;4.95;;
76210;SDS011;65003;49.518;11.280;2023-07-08T08:20:24;4.42;;;4.05;;
76210;SDS011;65003;49.518;11.280;2023-07-08T08:22:50;4.87;;;4.47;;
76210;SDS011;65003;49.518;11.280;2023-07-08T08:25:17;5.78;;;4.40;;
76210;SDS011;65003;49.518;11.280;2023-07-08T08:27:44;5.00;;;4.60;;
76210;SDS011;65003;49.518;11.280;2023-07-08T08:30:10;4.70;;;4.33;;
76210;SDS011;65003;49.518;11.280;2023-07-08T08:32:37;5.58;;;4.65;;
76210;SDS011;65003;49.518;11.280;2023-07-08T08:35:04;5.03;;;4.60;;
76210;SDS011;65003;49.518;11.280;2023-07-08T08:37:31;4.42;;;3.95;;
76210;SDS011;65003;49.518;11.280;2023-07-08T08:39:57;4.42;;;4.03;;
76210;SDS011;65003;49.518;11.280;2023-07-08T08:42:27;4.33;;;3.92;;
76210;SDS011;65003;49.518;11.280;2023-07-08T08:44:53;4.35;;;3.95;;
76210;SDS011;65003;49.518;11.280;2023-07-08T08:47:37;4.87;;;4.35;;
76210;SDS011;65003;49.518;11.280;2023-07-08T08:50:10;5.40;;;3.65;;
76210;SDS011;65003;49.518;11.280;2023-07-08T08:52:45;4.33;;;3.92;;
76210;SDS011;65003;49.518;11.280;2023-07-08T08:55:12;7.10;;;3.87;;
76210;SDS011;65003;49.518;11.280;2023-07-08T08:57:45;4.33;;;3.90;;
76210;SDS011;65003;49.518;11.280;2023-07-08T09:00:10;4.13;;;3.60;;
76210;SDS011;65003;49.518;11.280;2023-07-08T09:02:38;4.67;;;4.20;;
76210;SDS011;65003;49.518;11.280;2023-07-08T09:05:04;5.17;;;3.80;;
76210;SDS011;65003;49.518;11.280;2023-07-08T09:07:31;4.33;;;3.87;;
76210;SDS011;65003;49.518;11.280;2023-07-08T09:10:00;4.17;;;3.73;;
76210;SDS011;65003;49.518;11.280;2023-07-08T09:12:39;5.80;;;4.07;;
76210;SDS011;65003;49.518;11.280;2023-07-08T09:15:12;4.60;;;4.20;;
76210;SDS011;65003;49.518;11.280;2023-07-08T09:17:38;3.77;;;3.47;;
76210;SDS011;65003;49.518;11.280;2023-07-08T09:20:06;3.87;;;3.47;;
76210;SDS011;65003;49.518;11.280;2023-07-08T09:22:49;7.93;;;3.83;;
76210;SDS011;65003;49.518;11.280;2023-07-08T09:25:49;5.13;;;3.50;;
76210;SDS011;65003;49.518;11.280;2023-07-08T09:27:56;3.87;;;3.20;;
76210;SDS011;65003;49.518;11.280;2023-07-08T09:30:23;3.90;;;3.00;;
76210;SDS011;65003;49.518;11.280;2023-07-08T09:32:50;5.00;;;2.90;;
76210;SDS011;65003;49.518;11.280;2023-07-08T09:35:22;3.70;;;3.30;;
76210;SDS011;65003;49.518;11.280;2023-07-08T09:37:47;4.50;;;3.43;;
76210;SDS011;65003;49.518;11.280;2023-07-08T09:40:16;7.90;;;3.47;;
76210;SDS011;65003;49.518;11.280;2023-07-08T09:42:44;5.20;;;3.13;;
76210;SDS011;65003;49.518;11.280;2023-07-08T09:45:11;4.17;;;3.77;;
76210;SDS011;65003;49.518;11.280;2023-07-08T09:47:38;4.00;;;2.87;;
76210;SDS011;65003;49.518;11.280;2023-07-08T09:50:09;3.40;;;3.00;;
76210;SDS011;65003;49.518;11.280;2023-07-08T09:52:32;4.90;;;3.40;;
76210;SDS011;65003;49.518;11.280;2023-07-08T09:54:59;3.93;;;3.50;;
76210;SDS011;65003;49.518;11.280;2023-07-08T09:57:27;4.33;;;3.20;;
76210;SDS011;65003;49.518;11.280;2023-07-08T09:59:56;3.60;;;2.80;;
76210;SDS011;65003;49.518;11.280;2023-07-08T10:02:33;4.37;;;3.90;;
76210;SDS011;65003;49.518;11.280;2023-07-08T10:05:14;3.47;;;3.03;;
76210;SDS011;65003;49.518;11.280;2023-07-08T10:07:40;3.73;;;3.30;;
76210;SDS011;65003;49.518;11.280;2023-07-08T10:10:08;3.67;;;3.37;;
76210;SDS011;65003;49.518;11.280;2023-07-08T10:12:35;4.57;;;3.47;;
76210;SDS011;65003;49.518;11.280;2023-07-08T10:15:03;3.90;;;3.57;;
76210;SDS011;65003;49.518;11.280;2023-07-08T10:17:30;3.83;;;3.20;;
76210;SDS011;65003;49.518;11.280;2023-07-08T10:19:57;4.60;;;3.20;;
76210;SDS011;65003;49.518;11.280;2023-07-08T10:22:26;3.73;;;3.33;;
76210;SDS011;65003;49.518;11.280;2023-07-08T10:25:27;3.80;;;3.00;;
76210;SDS011;65003;49.518;11.280;2023-07-08T10:27:40;3.40;;;3.03;;
76210;SDS011;65003;49.518;11.280;2023-07-08T10:30:25;4.70;;;3.57;;
76210;SDS011;65003;49.518;11.280;2023-07-08T10:32:55;3.37;;;3.07;;
76210;SDS011;65003;49.518;11.280;2023-07-08T10:35:27;3.90;;;3.23;;
76210;SDS011;65003;49.518;11.280;2023-07-08T10:37:59;4.20;;;3.27;;
76210;SDS011;65003;49.518;11.280;2023-07-08T10:40:47;4.73;;;3.50;;
76210;SDS011;65003;49.518;11.280;2023-07-08T10:43:18;3.37;;;3.07;;
76210;SDS011;65003;49.518;11.280;2023-07-08T10:46:09;3.40;;;3.10;;
76210;SDS011;65003;49.518;11.280;2023-07-08T10:51:58;3.87;;;3.47;;
76210;SDS011;65003;49.518;11.280;2023-07-08T10:54:37;4.00;;;3.60;;
76210;SDS011;65003;49.518;11.280;2023-07-08T10:57:10;3.93;;;3.40;;
76210;SDS011;65003;49.518;11.280;2023-07-08T10:59:38;3.97;;;3.30;;
76210;SDS011;65003;49.518;11.280;2023-07-08T11:02:13;3.40;;;3.10;;
76210;SDS011;65003;49.518;11.280;2023-07-08T11:04:42;4.83;;;3.10;;
76210;SDS011;65003;49.518;11.280;2023-07-08T11:07:13;4.00;;;3.60;;
76210;SDS011;65003;49.518;11.280;2023-07-08T11:09:43;4.43;;;3.90;;
76210;SDS011;65003;49.518;11.280;2023-07-08T11:12:22;6.57;;;3.67;;
76210;SDS011;65003;49.518;11.280;2023-07-08T11:14:56;3.87;;;3.07;;
76210;SDS011;65003;49.518;11.280;2023-07-08T11:17:29;4.70;;;3.60;;
76210;SDS011;65003;49.518;11.280;2023-07-08T11:19:56;3.50;;;3.20;;
76210;SDS011;65003;49.518;11.280;2023-07-08T11:22:21;4.23;;;3.17;;
76210;SDS011;65003;49.518;11.280;2023-07-08T11:24:49;3.53;;;3.13;;
76210;SDS011;65003;49.518;11.280;2023-07-08T11:27:15;4.00;;;3.60;;
76210;SDS011;65003;49.518;11.280;2023-07-08T11:29:58;3.80;;;3.33;;
76210;SDS011;65003;49.518;11.280;2023-07-08T11:32:33;3.70;;;2.80;;
76210;SDS011;65003;49.518;11.280;2023-07-08T11:35:00;4.43;;;3.43;;
76210;SDS011;65003;49.518;11.280;2023-07-08T11:37:26;5.87;;;3.53;;
76210;SDS011;65003;49.518;11.280;2023-07-08T11:39:54;4.37;;;3.03;;
76210;SDS011;65003;49.518;11.280;2023-07-08T11:42:30;3.67;;;3.37;;
76210;SDS011;65003;49.518;11.280;2023-07-08T11:44:58;3.33;;;3.03;;
76210;SDS011;65003;49.518;11.280;2023-07-08T11:47:31;5.13;;;3.67;;
76210;SDS011;65003;49.518;11.280;2023-07-08T11:49:58;4.27;;;3.67;;
76210;SDS011;65003;49.518;11.280;2023-07-08T11:52:25;5.77;;;3.73;;
76210;SDS011;65003;49.518;11.280;2023-07-08T11:54:56;5.67;;;3.70;;
76210;SDS011;65003;49.518;11.280;2023-07-08T11:57:27;4.00;;;3.60;;
76210;SDS011;65003;49.518;11.280;2023-07-08T12:00:12;3.97;;;3.57;;
76210;SDS011;65003;49.518;11.280;2023-07-08T12:05:14;4.17;;;3.77;;
76210;SDS011;65003;49.518;11.280;2023-07-08T12:07:41;5.40;;;3.73;;
76210;SDS011;65003;49.518;11.280;2023-07-08T12:10:13;5.20;;;3.70;;
76210;SDS011;65003;49.518;11.280;2023-07-08T12:12:37;4.27;;;3.87;;
76210;SDS011;65003;49.518;11.280;2023-07-08T12:15:10;3.43;;;3.13;;
76210;SDS011;65003;49.518;11.280;2023-07-08T12:17:51;4.90;;;3.50;;
76210;SDS011;65003;49.518;11.280;2023-07-08T12:20:19;4.53;;;2.87;;
76210;SDS011;65003;49.518;11.280;2023-07-08T12:22:49;4.40;;;3.07;;
76210;SDS011;65003;49.518;11.280;2023-07-08T12:25:17;4.03;;;3.03;;
76210;SDS011;65003;49.518;11.280;2023-07-08T12:27:43;3.70;;;3.13;;
76210;SDS011;65003;49.518;11.280;2023-07-08T12:30:10;5.47;;;3.50;;
76210;SDS011;65003;49.518;11.280;2023-07-08T12:32:36;5.57;;;3.53;;
76210;SDS011;65003;49.518;11.280;2023-07-08T12:35:03;3.47;;;3.13;;
76210;SDS011;65003;49.518;11.280;2023-07-08T12:37:30;4.00;;;3.60;;
76210;SDS011;65003;49.518;11.280;2023-07-08T12:39:56;4.90;;;3.33;;
76210;SDS011;65003;49.518;11.280;2023-07-08T12:42:23;4.17;;;3.50;;
76210;SDS011;65003;49.518;11.280;2023-07-08T12:44:49;4.37;;;3.17;;
76210;SDS011;65003;49.518;11.280;2023-07-08T12:47:19;4.13;;;3.40;;
76210;SDS011;65003;49.518;11.280;2023-07-08T12:49:42;3.83;;;3.43;;
76210;SDS011;65003;49.518;11.280;2023-07-08T12:52:18;6.30;;;3.73;;
76210;SDS011;65003;49.518;11.280;2023-07-08T12:54:36;4.65;;;3.45;;
76210;SDS011;65003;49.518;11.280;2023-07-08T12:57:03;5.00;;;3.57;;
76210;SDS011;65003;49.518;11.280;2023-07-08T12:59:30;3.67;;;3.33;;
76210;SDS011;65003;49.518;11.280;2023-07-08T13:01:56;4.77;;;3.60;;
76210;SDS011;65003;49.518;11.280;2023-07-08T13:04:23;4.60;;;3.47;;
76210;SDS011;65003;49.518;11.280;2023-07-08T13:06:50;5.30;;;3.47;;
76210;SDS011;65003;49.518;11.280;2023-07-08T13:12:06;4.43;;;3.27;;
76210;SDS011;65003;49.518;11.280;2023-07-08T13:14:24;4.20;;;3.80;;
76210;SDS011;65003;49.518;11.280;2023-07-08T13:16:51;5.37;;;3.40;;
76210;SDS011;65003;49.518;11.280;2023-07-08T13:19:18;4.57;;;3.50;;
76210;SDS011;65003;49.518;11.280;2023-07-08T13:21:44;3.40;;;3.10;;
76210;SDS011;65003;49.518;11.280;2023-07-08T13:24:11;4.30;;;3.63;;
76210;SDS011;65003;49.518;11.280;2023-07-08T13:26:37;3.90;;;3.43;;
76210;SDS011;65003;49.518;11.280;2023-07-08T13:29:06;3.93;;;3.47;;
76210;SDS011;65003;49.518;11.280;2023-07-08T13:31:32;3.27;;;2.97;;
76210;SDS011;65003;49.518;11.280;2023-07-08T13:34:05;3.67;;;3.37;;
76210;SDS011;65003;49.518;11.280;2023-07-08T13:36:31;4.47;;;3.63;;
76210;SDS011;65003;49.518;11.280;2023-07-08T13:38:51;4.67;;;3.30;;
76210;SDS011;65003;49.518;11.280;2023-07-08T13:41:20;3.90;;;3.20;;
76210;SDS011;65003;49.518;11.280;2023-07-08T13:43:45;4.07;;;3.67;;
76210;SDS011;65003;49.518;11.280;2023-07-08T13:48:51;4.87;;;3.70;;
76210;SDS011;65003;49.518;11.280;2023-07-08T13:51:18;5.63;;;3.57;;
76210;SDS011;65003;49.518;11.280;2023-07-08T13:53:45;3.57;;;3.10;;
76210;SDS011;65003;49.518;11.280;2023-07-08T13:56:14;7.33;;;3.80;;
76210;SDS011;65003;49.518;11.280;2023-07-08T13:58:41;4.10;;;3.80;;
76210;SDS011;65003;49.518;11.280;2023-07-08T14:01:05;6.40;;;3.23;;
76210;SDS011;65003;49.518;11.280;2023-07-08T14:03:32;4.30;;;3.50;;
76210;SDS011;65003;49.518;11.280;2023-07-08T14:05:58;5.67;;;3.40;;
76210;SDS011;65003;49.518;11.280;2023-07-08T14:08:25;4.10;;;3.70;;
76210;SDS011;65003;49.518;11.280;2023-07-08T14:10:52;3.63;;;3.23;;
76210;SDS011;65003;49.518;11.280;2023-07-08T14:13:19;4.87;;;3.57;;
76210;SDS011;65003;49.518;11.280;2023-07-08T14:15:46;6.07;;;3.57;;
76210;SDS011;65003;49.518;11.280;2023-07-08T14:18:12;3.60;;;3.30;;
76210;SDS011;65003;49.518;11.280;2023-07-08T14:20:39;4.07;;;3.47;;
76210;SDS011;65003;49.518;11.280;2023-07-08T14:23:07;4.77;;;3.70;;
76210;SDS011;65003;49.518;11.280;2023-07-08T14:25:32;6.90;;;3.57;;
76210;SDS011;65003;49.518;11.280;2023-07-08T14:27:59;4.37;;;3.13;;
76210;SDS011;65003;49.518;11.280;2023-07-08T14:30:25;4.00;;;3.60;;
76210;SDS011;65003;49.518;11.280;2023-07-08T14:32:52;3.77;;;3.03;;
76210;SDS011;65003;49.518;11.280;2023-07-08T14:35:23;3.50;;;3.03;;
76210;SDS011;65003;49.518;11.280;2023-07-08T14:37:49;4.27;;;3.23;;
76210;SDS011;65003;49.518;11.280;2023-07-08T14:40:26;4.40;;;3.53;;
76210;SDS011;65003;49.518;11.280;2023-07-08T14:43:01;4.93;;;3.40;;
76210;SDS011;65003;49.518;11.280;2023-07-08T14:45:29;3.63;;;3.17;;
76210;SDS011;65003;49.518;11.280;2023-07-08T14:47:56;5.40;;;3.80;;